UAL1445 TIST-KIAD
Flight info
| Callsign | UAL1445 |
|---|---|
| Flight time | N/A |
| Altitude | 34000 |
| Route | PALCO7 PALCO RTE6 SJU DCT ACONY Y185 DONQU DCT LNHOM/M079F340 L452 OXANA/N0460F340 AR8 ECG DCT COUPN DCT DORRN CAVLR6 |
| Aircraft | B38M/M-SDE1FGHILORVWXY/HB1 |
Departure
| Time | N/A |
|---|---|
| Airport | Cyril E. King Airport (TIST) |
Arrival
| Time | 2026-05-03 21:56 |
|---|---|
| Airport | Washington Dulles International Airport (KIAD) |
| Time | Latitude | Longitude | Altitude | Speed | Heading |
|---|---|---|---|---|---|
| 2026-05-03 20:46 | 33.46294 | -73.46752 | 34112 ft | 453 kts | 330° |
| 2026-05-03 20:46 | 33.49339 | -73.47729 | 34111 ft | 453 kts | 330° |
| 2026-05-03 20:47 | 33.55423 | -73.49682 | 34105 ft | 453 kts | 330° |
| 2026-05-03 20:47 | 33.61514 | -73.51641 | 34108 ft | 453 kts | 330° |
| 2026-05-03 20:48 | 33.67553 | -73.53585 | 34102 ft | 451 kts | 330° |
| 2026-05-03 20:48 | 33.73616 | -73.55540 | 34111 ft | 451 kts | 330° |
| 2026-05-03 20:49 | 33.79679 | -73.57498 | 34110 ft | 451 kts | 330° |
| 2026-05-03 20:49 | 33.85746 | -73.59459 | 34110 ft | 451 kts | 330° |
| 2026-05-03 20:50 | 33.91802 | -73.61421 | 34138 ft | 450 kts | 329° |
| 2026-05-03 20:50 | 33.97837 | -73.63378 | 34111 ft | 449 kts | 329° |
| 2026-05-03 20:51 | 34.03877 | -73.65340 | 34136 ft | 449 kts | 329° |
| 2026-05-03 20:51 | 34.09898 | -73.67298 | 34108 ft | 447 kts | 329° |
| 2026-05-03 20:52 | 34.15915 | -73.69258 | 34166 ft | 448 kts | 330° |
| 2026-05-03 20:52 | 34.21935 | -73.71222 | 34108 ft | 448 kts | 330° |
| 2026-05-03 20:53 | 34.27960 | -73.73191 | 34111 ft | 448 kts | 330° |
| 2026-05-03 20:53 | 34.33959 | -73.75217 | 34101 ft | 438 kts | 323° |
| 2026-05-03 20:53 | 34.36449 | -73.76920 | 34096 ft | 400 kts | 306° |
| 2026-05-03 20:54 | 34.38534 | -73.79162 | 34099 ft | 398 kts | 304° |
| 2026-05-03 20:54 | 34.44451 | -73.86057 | 34119 ft | 395 kts | 302° |
| 2026-05-03 20:55 | 34.48321 | -73.90791 | 34121 ft | 395 kts | 302° |
| 2026-05-03 20:55 | 34.52165 | -73.95540 | 34115 ft | 394 kts | 302° |
| 2026-05-03 20:56 | 34.56005 | -74.00296 | 34114 ft | 394 kts | 302° |
| 2026-05-03 20:56 | 34.59846 | -74.05062 | 34121 ft | 395 kts | 302° |
| 2026-05-03 20:57 | 34.63684 | -74.09830 | 34118 ft | 395 kts | 302° |
| 2026-05-03 20:57 | 34.67523 | -74.14607 | 34116 ft | 395 kts | 302° |
| 2026-05-03 20:58 | 34.71337 | -74.19358 | 34147 ft | 395 kts | 302° |
| 2026-05-03 20:58 | 34.75164 | -74.24133 | 34113 ft | 394 kts | 302° |
| 2026-05-03 20:59 | 34.78991 | -74.28914 | 34113 ft | 395 kts | 302° |
| 2026-05-03 20:59 | 34.82821 | -74.33706 | 34114 ft | 395 kts | 302° |
| 2026-05-03 21:00 | 34.85997 | -74.37685 | 34137 ft | 394 kts | 303° |
| 2026-05-03 21:00 | 34.90452 | -74.43275 | 34126 ft | 393 kts | 303° |
| 2026-05-03 21:01 | 34.94262 | -74.48062 | 34124 ft | 393 kts | 303° |
| 2026-05-03 21:01 | 34.98041 | -74.52817 | 34123 ft | 393 kts | 303° |
| 2026-05-03 21:02 | 35.01848 | -74.57615 | 34121 ft | 393 kts | 303° |
| 2026-05-03 21:02 | 35.05649 | -74.62412 | 34121 ft | 393 kts | 302° |
| 2026-05-03 21:03 | 35.09451 | -74.67216 | 34126 ft | 393 kts | 302° |
| 2026-05-03 21:03 | 35.13254 | -74.72029 | 34122 ft | 393 kts | 302° |
| 2026-05-03 21:04 | 35.17050 | -74.76839 | 34121 ft | 393 kts | 302° |
| 2026-05-03 21:04 | 35.20815 | -74.81618 | 34119 ft | 393 kts | 302° |
| 2026-05-03 21:05 | 35.24605 | -74.86435 | 34120 ft | 393 kts | 302° |
| 2026-05-03 21:05 | 35.28394 | -74.91257 | 34122 ft | 393 kts | 302° |
| 2026-05-03 21:06 | 35.32167 | -74.96065 | 34158 ft | 389 kts | 302° |
| 2026-05-03 21:06 | 35.35906 | -75.00836 | 34128 ft | 388 kts | 302° |
| 2026-05-03 21:07 | 35.39650 | -75.05621 | 34130 ft | 388 kts | 302° |
| 2026-05-03 21:07 | 35.43390 | -75.10413 | 34125 ft | 389 kts | 303° |
| 2026-05-03 21:08 | 35.47128 | -75.15206 | 34122 ft | 389 kts | 303° |
| 2026-05-03 21:08 | 35.50871 | -75.20011 | 34122 ft | 389 kts | 303° |
| 2026-05-03 21:09 | 35.54607 | -75.24814 | 34125 ft | 389 kts | 303° |
| 2026-05-03 21:09 | 35.58318 | -75.29593 | 34121 ft | 389 kts | 303° |
| 2026-05-03 21:10 | 35.62045 | -75.34399 | 34137 ft | 389 kts | 303° |
| 2026-05-03 21:10 | 35.65774 | -75.39214 | 34120 ft | 389 kts | 303° |
| 2026-05-03 21:11 | 35.69508 | -75.44043 | 34112 ft | 390 kts | 303° |
| 2026-05-03 21:11 | 35.73259 | -75.48902 | 34117 ft | 392 kts | 303° |
| 2026-05-03 21:12 | 35.77017 | -75.53776 | 34111 ft | 392 kts | 303° |
| 2026-05-03 21:12 | 35.80756 | -75.58632 | 34111 ft | 392 kts | 303° |
| 2026-05-03 21:13 | 35.84481 | -75.63475 | 34107 ft | 392 kts | 303° |
| 2026-05-03 21:13 | 35.88236 | -75.68361 | 34103 ft | 392 kts | 303° |
| 2026-05-03 21:14 | 35.91988 | -75.73248 | 34107 ft | 391 kts | 303° |
| 2026-05-03 21:14 | 35.95731 | -75.78131 | 34103 ft | 392 kts | 303° |
| 2026-05-03 21:15 | 35.99474 | -75.83020 | 34092 ft | 393 kts | 303° |
| 2026-05-03 21:15 | 36.03227 | -75.87929 | 34092 ft | 393 kts | 303° |
| 2026-05-03 21:16 | 36.06952 | -75.92810 | 34088 ft | 393 kts | 303° |
| 2026-05-03 21:16 | 36.10696 | -75.97724 | 34086 ft | 393 kts | 303° |
| 2026-05-03 21:17 | 36.13833 | -76.01845 | 34084 ft | 393 kts | 303° |
| 2026-05-03 21:17 | 36.18184 | -76.07570 | 34108 ft | 393 kts | 303° |
| 2026-05-03 21:18 | 36.21918 | -76.12491 | 34071 ft | 392 kts | 303° |
| 2026-05-03 21:18 | 36.25631 | -76.17435 | 34071 ft | 388 kts | 300° |
| 2026-05-03 21:19 | 36.28678 | -76.22868 | 34069 ft | 384 kts | 296° |
| 2026-05-03 21:19 | 36.31688 | -76.28316 | 34074 ft | 383 kts | 296° |
| 2026-05-03 21:20 | 36.34681 | -76.33752 | 34076 ft | 383 kts | 296° |
| 2026-05-03 21:20 | 36.37687 | -76.39224 | 34080 ft | 383 kts | 296° |
| 2026-05-03 21:21 | 36.40689 | -76.44697 | 34085 ft | 383 kts | 296° |
| 2026-05-03 21:21 | 36.43691 | -76.50180 | 34089 ft | 383 kts | 296° |
| 2026-05-03 21:22 | 36.46672 | -76.55633 | 34093 ft | 384 kts | 296° |
| 2026-05-03 21:22 | 36.49663 | -76.61112 | 34097 ft | 382 kts | 297° |
| 2026-05-03 21:23 | 36.52640 | -76.66575 | 34090 ft | 382 kts | 297° |
| 2026-05-03 21:23 | 36.55620 | -76.72052 | 34089 ft | 382 kts | 297° |
| 2026-05-03 21:24 | 36.58596 | -76.77529 | 34090 ft | 382 kts | 297° |
| 2026-05-03 21:24 | 36.61572 | -76.83017 | 34091 ft | 382 kts | 297° |
| 2026-05-03 21:25 | 36.64528 | -76.88476 | 34078 ft | 383 kts | 297° |
| 2026-05-03 21:25 | 36.67510 | -76.93991 | 34080 ft | 384 kts | 297° |
| 2026-05-03 21:26 | 36.70489 | -76.99507 | 34083 ft | 384 kts | 297° |
| 2026-05-03 21:26 | 36.72268 | -77.02044 | 34068 ft | 397 kts | 311° |
| 2026-05-03 21:26 | 36.73682 | -77.03503 | 34100 ft | 398 kts | 310° |
| 2026-05-03 21:27 | 36.77857 | -77.08052 | 34124 ft | 398 kts | 310° |
| 2026-05-03 21:27 | 36.82057 | -77.12553 | 34072 ft | 397 kts | 310° |
| 2026-05-03 21:28 | 36.86256 | -77.17036 | 34078 ft | 398 kts | 310° |
| 2026-05-03 21:28 | 36.90463 | -77.21534 | 34081 ft | 398 kts | 310° |
| 2026-05-03 21:29 | 36.93956 | -77.25273 | 34081 ft | 398 kts | 310° |
| 2026-05-03 21:29 | 36.98868 | -77.30539 | 34080 ft | 398 kts | 310° |
| 2026-05-03 21:30 | 37.03068 | -77.35048 | 34086 ft | 398 kts | 310° |
| 2026-05-03 21:30 | 37.07255 | -77.39551 | 34096 ft | 395 kts | 310° |
| 2026-05-03 21:31 | 37.11424 | -77.44042 | 34087 ft | 395 kts | 310° |
| 2026-05-03 21:31 | 37.15567 | -77.48510 | 34081 ft | 395 kts | 310° |
| 2026-05-03 21:32 | 37.19735 | -77.53012 | 34081 ft | 395 kts | 310° |
| 2026-05-03 21:32 | 37.23898 | -77.57517 | 34081 ft | 395 kts | 310° |
| 2026-05-03 21:33 | 37.28058 | -77.62024 | 34083 ft | 395 kts | 311° |
| 2026-05-03 21:33 | 37.32211 | -77.66531 | 34101 ft | 395 kts | 311° |
| 2026-05-03 21:34 | 37.35657 | -77.70275 | 33627 ft | 393 kts | 311° |
| 2026-05-03 21:34 | 37.36359 | -77.71039 | 33192 ft | 397 kts | 311° |
| 2026-05-03 21:35 | 37.42820 | -77.78073 | 30953 ft | 393 kts | 312° |
| 2026-05-03 21:35 | 37.44860 | -77.80297 | 30203 ft | 393 kts | 312° |
| 2026-05-03 21:35 | 37.46938 | -77.82564 | 29272 ft | 394 kts | 313° |
| 2026-05-03 21:35 | 37.49097 | -77.84719 | 28402 ft | 402 kts | 321° |
| 2026-05-03 21:36 | 37.51675 | -77.86184 | 27675 ft | 412 kts | 335° |
| 2026-05-03 21:36 | 37.54574 | -77.86792 | 26792 ft | 435 kts | 349° |
| 2026-05-03 21:36 | 37.57663 | -77.86459 | 25845 ft | 456 kts | 5° |
| 2026-05-03 21:36 | 37.60706 | -77.85069 | 24812 ft | 474 kts | 17° |
| 2026-05-03 21:37 | 37.63705 | -77.83371 | 24065 ft | 470 kts | 16° |
| 2026-05-03 21:37 | 37.66680 | -77.81731 | 23430 ft | 462 kts | 16° |
| 2026-05-03 21:37 | 37.69607 | -77.80114 | 22752 ft | 456 kts | 16° |
| 2026-05-03 21:37 | 37.72524 | -77.78498 | 21510 ft | 461 kts | 17° |
| 2026-05-03 21:38 | 37.75415 | -77.76888 | 20604 ft | 447 kts | 17° |
| 2026-05-03 21:38 | 37.77292 | -77.75844 | 19863 ft | 442 kts | 17° |
| 2026-05-03 21:38 | 37.81019 | -77.73768 | 18431 ft | 433 kts | 17° |
| 2026-05-03 21:38 | 37.83758 | -77.72241 | 17240 ft | 427 kts | 17° |
| 2026-05-03 21:39 | 37.86462 | -77.70732 | 16181 ft | 420 kts | 18° |
| 2026-05-03 21:39 | 37.89114 | -77.69254 | 15206 ft | 413 kts | 18° |
| 2026-05-03 21:39 | 37.91685 | -77.67820 | 14818 ft | 392 kts | 18° |
| 2026-05-03 21:39 | 37.94107 | -77.66467 | 14636 ft | 369 kts | 18° |
| 2026-05-03 21:40 | 37.96390 | -77.65191 | 14429 ft | 349 kts | 17° |
| 2026-05-03 21:40 | 37.98527 | -77.63997 | 14223 ft | 331 kts | 17° |
| 2026-05-03 21:40 | 38.00582 | -77.62848 | 14044 ft | 315 kts | 17° |
| 2026-05-03 21:40 | 38.02553 | -77.61745 | 13875 ft | 305 kts | 17° |
| 2026-05-03 21:41 | 38.04468 | -77.60673 | 13689 ft | 297 kts | 17° |
| 2026-05-03 21:41 | 38.06309 | -77.59557 | 13517 ft | 290 kts | 20° |
| 2026-05-03 21:41 | 38.08087 | -77.58422 | 13354 ft | 281 kts | 19° |
| 2026-05-03 21:41 | 38.09828 | -77.57322 | 13235 ft | 283 kts | 19° |
| 2026-05-03 21:42 | 38.11621 | -77.56190 | 13115 ft | 291 kts | 19° |
| 2026-05-03 21:42 | 38.13448 | -77.55038 | 12970 ft | 294 kts | 19° |
| 2026-05-03 21:42 | 38.15281 | -77.53882 | 12808 ft | 295 kts | 19° |
| 2026-05-03 21:42 | 38.17143 | -77.52696 | 12186 ft | 304 kts | 20° |
| 2026-05-03 21:43 | 38.19075 | -77.51461 | 11460 ft | 317 kts | 21° |
| 2026-05-03 21:43 | 38.21060 | -77.50189 | 10816 ft | 321 kts | 21° |
| 2026-05-03 21:43 | 38.23045 | -77.48918 | 10203 ft | 318 kts | 22° |
| 2026-05-03 21:43 | 38.25054 | -77.47894 | 9741 ft | 303 kts | 10° |
| 2026-05-03 21:44 | 38.27052 | -77.47222 | 9340 ft | 292 kts | 10° |
| 2026-05-03 21:44 | 38.28969 | -77.46564 | 9048 ft | 278 kts | 9° |
| 2026-05-03 21:44 | 38.30808 | -77.46238 | 8890 ft | 260 kts | 359° |
| 2026-05-03 21:44 | 38.32613 | -77.46076 | 8765 ft | 261 kts | 360° |
| 2026-05-03 21:45 | 38.34425 | -77.45903 | 8641 ft | 261 kts | 0° |
| 2026-05-03 21:45 | 38.36211 | -77.45726 | 8512 ft | 260 kts | 0° |
| 2026-05-03 21:45 | 38.38014 | -77.45542 | 8363 ft | 260 kts | 0° |
| 2026-05-03 21:45 | 38.39815 | -77.45356 | 8262 ft | 260 kts | 0° |
| 2026-05-03 21:46 | 38.41615 | -77.45171 | 8118 ft | 259 kts | 1° |
| 2026-05-03 21:46 | 38.43413 | -77.44984 | 7986 ft | 259 kts | 1° |
| 2026-05-03 21:46 | 38.45210 | -77.44798 | 7871 ft | 259 kts | 1° |
| 2026-05-03 21:46 | 38.47000 | -77.44611 | 7730 ft | 258 kts | 1° |
| 2026-05-03 21:47 | 38.48793 | -77.44426 | 7610 ft | 257 kts | 0° |
| 2026-05-03 21:47 | 38.50579 | -77.44286 | 7472 ft | 256 kts | 358° |
| 2026-05-03 21:47 | 38.52356 | -77.44256 | 7332 ft | 256 kts | 357° |
| 2026-05-03 21:47 | 38.54138 | -77.44220 | 7214 ft | 256 kts | 358° |
| 2026-05-03 21:48 | 38.55919 | -77.44181 | 7090 ft | 255 kts | 358° |
| 2026-05-03 21:48 | 38.57686 | -77.44156 | 6815 ft | 254 kts | 358° |
| 2026-05-03 21:48 | 38.59457 | -77.44131 | 6454 ft | 255 kts | 357° |
| 2026-05-03 21:48 | 38.61233 | -77.44107 | 6070 ft | 256 kts | 357° |
| 2026-05-03 21:49 | 38.63006 | -77.44081 | 5754 ft | 253 kts | 357° |
| 2026-05-03 21:49 | 38.64731 | -77.44051 | 5470 ft | 243 kts | 358° |
| 2026-05-03 21:49 | 38.66389 | -77.44027 | 5218 ft | 234 kts | 357° |
| 2026-05-03 21:49 | 38.67979 | -77.44005 | 5009 ft | 222 kts | 357° |
| 2026-05-03 21:50 | 38.69491 | -77.43981 | 4729 ft | 214 kts | 357° |
| 2026-05-03 21:50 | 38.70974 | -77.43960 | 4385 ft | 211 kts | 356° |
| 2026-05-03 21:50 | 38.72428 | -77.43939 | 4069 ft | 206 kts | 356° |
| 2026-05-03 21:50 | 38.73823 | -77.43918 | 3881 ft | 196 kts | 357° |
| 2026-05-03 21:51 | 38.75146 | -77.43899 | 3642 ft | 189 kts | 356° |
| 2026-05-03 21:51 | 38.76438 | -77.43879 | 3426 ft | 182 kts | 356° |
| 2026-05-03 21:51 | 38.77680 | -77.43862 | 3191 ft | 172 kts | 356° |
| 2026-05-03 21:51 | 38.78821 | -77.43842 | 2991 ft | 160 kts | 357° |
| 2026-05-03 21:52 | 38.79920 | -77.43827 | 2789 ft | 157 kts | 355° |
| 2026-05-03 21:52 | 38.80971 | -77.43815 | 2610 ft | 146 kts | 355° |
| 2026-05-03 21:52 | 38.81965 | -77.43797 | 2382 ft | 141 kts | 356° |
| 2026-05-03 21:52 | 38.82948 | -77.43783 | 2200 ft | 141 kts | 355° |
| 2026-05-03 21:53 | 38.83925 | -77.43769 | 2001 ft | 140 kts | 354° |
| 2026-05-03 21:53 | 38.84901 | -77.43745 | 1800 ft | 139 kts | 354° |
| 2026-05-03 21:53 | 38.85859 | -77.43727 | 1576 ft | 139 kts | 355° |
| 2026-05-03 21:53 | 38.86834 | -77.43724 | 1405 ft | 140 kts | 355° |
| 2026-05-03 21:54 | 38.87792 | -77.43701 | 1274 ft | 135 kts | 355° |
| 2026-05-03 21:54 | 38.88757 | -77.43695 | 1093 ft | 141 kts | 354° |
| 2026-05-03 21:54 | 38.89731 | -77.43690 | 858 ft | 140 kts | 356° |
| 2026-05-03 21:54 | 38.90702 | -77.43668 | 666 ft | 141 kts | 353° |
| 2026-05-03 21:55 | 38.91667 | -77.43650 | 477 ft | 138 kts | 356° |
| 2026-05-03 21:55 | 38.92624 | -77.43638 | 321 ft | 134 kts | 356° |
| 2026-05-03 21:55 | 38.93197 | -77.43636 | 308 ft | 112 kts | 1° |
| 2026-05-03 21:55 | 38.93760 | -77.43622 | 305 ft | 64 kts | 360° |
| 2026-05-03 21:56 | 38.94266 | -77.43621 | 306 ft | 42 kts | 354° |
| 2026-05-03 21:56 | 38.94501 | -77.43721 | 300 ft | 36 kts | 332° |
| 2026-05-03 21:56 | 38.94647 | -77.43873 | 296 ft | 21 kts | 279° |
| 2026-05-03 21:56 | 38.94651 | -77.44004 | 295 ft | 22 kts | 274° |
| 2026-05-03 21:57 | 38.94658 | -77.44210 | 295 ft | 24 kts | 268° |
| 2026-05-03 21:57 | 38.94657 | -77.44428 | 295 ft | 25 kts | 270° |
| 2026-05-03 21:57 | 38.94660 | -77.44643 | 295 ft | 20 kts | 273° |
| 2026-05-03 21:57 | 38.94662 | -77.44776 | 295 ft | 6 kts | 265° |
| 2026-05-03 21:58 | 38.94634 | -77.44810 | 297 ft | 6 kts | 179° |
| 2026-05-03 21:58 | 38.94590 | -77.44795 | 297 ft | 6 kts | 162° |
| 2026-05-03 21:58 | 38.94582 | -77.44791 | 298 ft | 0 kts | 162° |
| 2026-05-03 21:58 | 38.94581 | -77.44791 | 298 ft | 0 kts | 162° |